createdAt,value
2018-05-15T00:00:35.110Z,12.00
2018-05-15T00:03:01.413Z,12.00
2018-05-15T00:05:27.716Z,11.90
2018-05-15T00:07:54.729Z,12.00
2018-05-15T00:10:21.076Z,11.90
2018-05-15T00:12:48.113Z,11.90
2018-05-15T00:15:14.421Z,11.90
2018-05-15T00:17:40.692Z,11.70
2018-05-15T00:20:07.741Z,11.70
2018-05-15T00:22:34.778Z,11.60
2018-05-15T00:25:01.805Z,11.50
2018-05-15T00:27:28.118Z,11.50
2018-05-15T00:29:54.414Z,11.40
2018-05-15T00:32:20.757Z,11.30
2018-05-15T00:34:47.062Z,11.30
2018-05-15T00:37:14.079Z,11.50
2018-05-15T00:39:42.838Z,11.40
2018-05-15T00:42:09.137Z,11.40
2018-05-15T00:44:35.638Z,11.30
2018-05-15T00:47:01.898Z,11.30
2018-05-15T00:49:28.200Z,11.40
2018-05-15T00:51:55.213Z,11.40
2018-05-15T00:54:21.513Z,11.30
2018-05-15T00:56:47.798Z,11.40
2018-05-15T00:59:14.856Z,11.30
2018-05-15T01:01:41.885Z,11.40
2018-05-15T01:04:08.191Z,11.40
2018-05-15T01:06:34.461Z,11.50
2018-05-15T01:09:01.504Z,11.50
2018-05-15T01:11:28.529Z,11.50
2018-05-15T01:13:54.841Z,11.50
2018-05-15T01:16:21.109Z,11.60
2018-05-15T01:18:48.149Z,11.80
2018-05-15T01:21:14.440Z,11.70
2018-05-15T01:23:40.785Z,11.80
2018-05-15T01:26:07.046Z,11.90
2018-05-15T01:28:34.116Z,11.90
2018-05-15T01:31:00.413Z,11.90
2018-05-15T01:33:26.728Z,11.70
2018-05-15T01:35:53.021Z,11.50
2018-05-15T01:38:19.325Z,11.50
2018-05-15T01:40:46.365Z,11.70
2018-05-15T01:43:13.408Z,11.70
2018-05-15T01:45:39.691Z,11.60
2018-05-15T01:48:05.999Z,11.60
2018-05-15T01:50:32.292Z,11.50
2018-05-15T01:52:58.604Z,11.60
2018-05-15T01:55:24.901Z,11.60
2018-05-15T01:57:51.201Z,11.70
2018-05-15T02:00:18.225Z,11.60
2018-05-15T02:02:44.531Z,11.60
2018-05-15T02:05:10.813Z,11.90
2018-05-15T02:07:37.869Z,12.10
2018-05-15T02:10:04.901Z,12.10
2018-05-15T02:12:31.943Z,12.20
2018-05-15T02:14:58.219Z,12.10
2018-05-15T02:17:24.522Z,12.10
2018-05-15T02:19:51.566Z,12.20
2018-05-15T02:22:18.621Z,12.00
2018-05-15T02:24:44.909Z,12.00
2018-05-15T02:27:11.213Z,12.00
2018-05-15T02:29:38.517Z,11.90
2018-05-15T02:32:05.573Z,11.90
2018-05-15T02:34:31.873Z,11.80
2018-05-15T02:36:58.169Z,11.80
2018-05-15T02:39:24.452Z,11.90
2018-05-15T02:41:51.493Z,11.80
2018-05-15T02:44:17.757Z,11.80
2018-05-15T02:46:44.065Z,11.70
2018-05-15T02:49:11.101Z,11.30
2018-05-15T02:51:37.401Z,11.30
2018-05-15T02:54:03.729Z,11.30
2018-05-15T02:56:30.030Z,11.30
2018-05-15T02:58:56.325Z,11.30
2018-05-15T03:01:23.400Z,11.20
2018-05-15T03:03:49.690Z,11.10
2018-05-15T03:06:16.029Z,11.10
2018-05-15T03:08:43.045Z,11.20
2018-05-15T03:11:10.389Z,11.10
2018-05-15T03:13:36.690Z,11.20
2018-05-15T03:16:03.031Z,11.30
2018-05-15T03:18:29.328Z,11.20
2018-05-15T03:20:56.390Z,11.20
2018-05-15T03:23:22.720Z,11.10
2018-05-15T03:25:49.025Z,11.10
2018-05-15T03:28:15.302Z,11.00
2018-05-15T03:30:41.601Z,10.90
2018-05-15T03:33:08.621Z,10.90
2018-05-15T03:35:34.947Z,10.90
2018-05-15T03:38:03.058Z,10.70
2018-05-15T03:40:29.361Z,10.70
2018-05-15T03:42:55.653Z,10.80
2018-05-15T03:45:21.953Z,10.90
2018-05-15T03:47:48.237Z,11.00
2018-05-15T03:50:14.553Z,10.70
2018-05-15T03:52:40.845Z,10.70
2018-05-15T03:55:07.140Z,10.80
2018-05-15T03:57:34.184Z,11.00
2018-05-15T04:00:00.496Z,11.00
2018-05-15T04:02:39.969Z,11.00
2018-05-15T04:05:19.396Z,11.00
2018-05-15T04:10:45.424Z,11.00
2018-05-15T04:13:11.723Z,11.00
2018-05-15T04:15:38.026Z,10.90
2018-05-15T04:18:04.328Z,11.00
2018-05-15T04:20:30.649Z,11.10
2018-05-15T04:22:57.709Z,11.50
2018-05-15T04:25:24.003Z,11.40
2018-05-15T04:27:50.294Z,11.70
2018-05-15T04:30:16.590Z,11.80
2018-05-15T04:32:43.648Z,11.80
2018-05-15T04:35:10.033Z,11.80
2018-05-15T04:37:36.228Z,12.00
2018-05-15T04:40:02.558Z,12.00
2018-05-15T04:42:29.595Z,12.00
2018-05-15T04:44:56.618Z,12.10
2018-05-15T04:47:22.926Z,12.10
2018-05-15T04:49:49.257Z,12.20
2018-05-15T04:52:15.545Z,12.40
2018-05-15T04:54:41.840Z,12.40
2018-05-15T04:57:08.135Z,12.40
2018-05-15T04:59:34.444Z,12.50
2018-05-15T05:02:00.828Z,12.60
2018-05-15T05:04:27.076Z,12.70
2018-05-15T05:06:53.375Z,12.80
2018-05-15T05:09:19.684Z,13.00
2018-05-15T05:11:46.001Z,13.10
2018-05-15T05:14:12.289Z,13.20
2018-05-15T05:16:38.570Z,13.50
2018-05-15T05:19:04.872Z,13.50
2018-05-15T05:21:31.884Z,13.50
2018-05-15T05:23:58.185Z,13.50
2018-05-15T05:26:24.464Z,13.70
2018-05-15T05:28:51.549Z,13.90
2018-05-15T05:31:17.838Z,13.80
2018-05-15T05:33:44.145Z,13.90
2018-05-15T05:36:10.434Z,14.00
2018-05-15T05:38:36.725Z,14.10
2018-05-15T05:41:03.033Z,14.10
2018-05-15T05:43:30.362Z,14.20
2018-05-15T05:45:56.641Z,14.20
2018-05-15T05:48:23.326Z,14.30
2018-05-15T05:50:50.513Z,14.30
2018-05-15T05:53:16.861Z,14.50
2018-05-15T05:55:43.133Z,14.70
2018-05-15T05:58:09.448Z,14.90
2018-05-15T06:00:35.741Z,15.10
2018-05-15T06:03:02.049Z,15.20
2018-05-15T06:05:28.333Z,15.20
2018-05-15T06:07:54.625Z,15.40
2018-05-15T06:10:20.909Z,15.50
2018-05-15T06:12:47.227Z,15.60
2018-05-15T06:15:14.258Z,15.60
2018-05-15T06:17:41.297Z,15.60
2018-05-15T06:20:07.564Z,15.60
2018-05-15T06:22:33.857Z,15.80
2018-05-15T06:25:00.148Z,15.80
2018-05-15T06:27:26.540Z,15.90
2018-05-15T06:29:52.764Z,15.90
2018-05-15T06:32:19.791Z,15.80
2018-05-15T06:34:46.857Z,15.60
2018-05-15T06:37:13.872Z,15.50
2018-05-15T06:39:40.179Z,15.40
2018-05-15T06:42:06.484Z,15.30
2018-05-15T06:44:32.760Z,15.30
2018-05-15T06:47:01.645Z,15.30
2018-05-15T06:49:27.925Z,15.30
2018-05-15T06:51:54.266Z,15.30
2018-05-15T06:54:20.556Z,15.40
2018-05-15T06:56:46.861Z,15.60
2018-05-15T06:59:13.145Z,15.60
2018-05-15T07:01:39.479Z,15.50
2018-05-15T07:04:05.771Z,15.60
2018-05-15T07:06:32.064Z,15.60
2018-05-15T07:08:58.365Z,15.70
2018-05-15T07:11:24.669Z,15.70
2018-05-15T07:13:50.968Z,15.80
2018-05-15T07:16:17.261Z,15.90
2018-05-15T07:18:43.581Z,15.80
2018-05-15T07:21:09.857Z,16.00
2018-05-15T07:23:36.177Z,16.10
2018-05-15T07:26:02.517Z,16.10
2018-05-15T07:28:28.860Z,16.10
2018-05-15T07:30:55.141Z,16.20
2018-05-15T07:33:21.453Z,16.30
2018-05-15T07:35:48.485Z,16.30
2018-05-15T07:38:14.781Z,16.30
2018-05-15T07:40:41.065Z,16.40
2018-05-15T07:43:08.113Z,16.70
2018-05-15T07:45:35.125Z,16.50
2018-05-15T07:48:01.432Z,16.50
2018-05-15T07:50:27.701Z,16.60
2018-05-15T07:52:54.741Z,16.70
2018-05-15T07:55:21.017Z,16.70
2018-05-15T07:57:47.310Z,16.90
2018-05-15T08:00:14.420Z,16.80
2018-05-15T08:02:41.385Z,16.90
2018-05-15T08:05:08.689Z,16.80
2018-05-15T08:07:34.984Z,17.10
2018-05-15T08:10:01.266Z,17.30
2018-05-15T08:12:27.589Z,17.30
2018-05-15T08:14:54.412Z,17.20
2018-05-15T08:17:20.770Z,17.30
2018-05-15T08:19:47.054Z,17.40
2018-05-15T08:22:14.742Z,17.60
2018-05-15T08:24:41.982Z,17.50
2018-05-15T08:27:08.303Z,17.60
2018-05-15T08:29:35.318Z,18.00
2018-05-15T08:32:01.646Z,18.00
2018-05-15T08:34:27.926Z,18.20
2018-05-15T08:36:54.254Z,18.00
2018-05-15T08:39:20.536Z,18.10
2018-05-15T08:41:46.846Z,18.00
2018-05-15T08:44:13.133Z,17.80
2018-05-15T08:46:40.176Z,17.90
2018-05-15T08:49:07.197Z,18.20
2018-05-15T08:51:33.488Z,18.20
2018-05-15T08:56:33.536Z,19.10
2018-05-15T08:59:00.537Z,19.90
2018-05-15T09:01:27.981Z,19.90
2018-05-15T09:03:54.321Z,20.20
2018-05-15T09:06:21.365Z,20.60
2018-05-15T09:08:47.634Z,20.50
2018-05-15T09:11:13.949Z,20.30
2018-05-15T09:13:40.974Z,19.90
2018-05-15T09:16:08.293Z,19.90
2018-05-15T09:18:34.570Z,19.60
2018-05-15T09:21:00.864Z,19.10
2018-05-15T09:23:27.150Z,18.90
2018-05-15T09:25:53.457Z,18.90
2018-05-15T09:28:19.721Z,19.10
2018-05-15T09:30:46.760Z,19.00
2018-05-15T09:33:13.041Z,19.00
2018-05-15T09:35:40.078Z,18.80
2018-05-15T09:38:07.401Z,18.80
2018-05-15T09:40:33.689Z,18.90
2018-05-15T09:43:00.693Z,19.10
2018-05-15T09:45:26.985Z,19.20
2018-05-15T09:47:53.273Z,19.50
2018-05-15T09:50:20.346Z,20.60
2018-05-15T09:52:47.377Z,20.80
2018-05-15T09:55:15.359Z,20.80
2018-05-15T09:57:41.817Z,20.70
2018-05-15T10:00:08.130Z,20.80
2018-05-15T10:02:34.417Z,21.00
2018-05-15T10:05:00.723Z,21.00
2018-05-15T10:07:27.005Z,20.90
2018-05-15T10:09:55.233Z,20.90
2018-05-15T10:12:21.505Z,20.80
2018-05-15T10:14:47.808Z,20.50
2018-05-15T10:17:14.085Z,20.30
2018-05-15T10:19:41.130Z,20.20
2018-05-15T10:22:08.150Z,19.60
2018-05-15T10:24:34.446Z,19.60
2018-05-15T10:27:00.716Z,19.20
2018-05-15T10:29:27.009Z,19.00
2018-05-15T10:31:53.313Z,19.00
2018-05-15T10:34:19.609Z,19.10
2018-05-15T10:36:47.993Z,18.80
2018-05-15T10:39:14.301Z,18.60
2018-05-15T10:41:40.597Z,18.50
2018-05-15T10:44:06.878Z,18.20
2018-05-15T10:46:34.728Z,17.60
2018-05-15T10:49:01.029Z,17.60
2018-05-15T10:51:27.344Z,16.30
2018-05-15T10:53:58.893Z,15.50
2018-05-15T10:56:25.941Z,14.50
2018-05-15T10:58:52.248Z,14.50
2018-05-15T11:01:18.538Z,13.70
2018-05-15T11:03:44.817Z,13.20
2018-05-15T11:06:11.155Z,12.60
2018-05-15T11:08:37.442Z,12.10
2018-05-15T11:11:03.734Z,11.90
2018-05-15T11:13:30.241Z,11.90
2018-05-15T11:15:56.536Z,11.90
2018-05-15T11:18:42.740Z,11.60
2018-05-15T11:21:21.373Z,11.40
2018-05-15T11:23:53.750Z,11.60
2018-05-15T11:26:20.042Z,11.60
2018-05-15T11:28:46.341Z,11.80
2018-05-15T11:31:13.403Z,12.00
2018-05-15T11:33:39.705Z,11.90
2018-05-15T11:36:05.991Z,11.90
2018-05-15T11:38:32.299Z,12.00
2018-05-15T11:40:58.573Z,12.00
2018-05-15T11:43:29.163Z,12.10
2018-05-15T11:45:55.676Z,12.20
2018-05-15T11:48:24.009Z,12.40
2018-05-15T11:50:50.176Z,12.40
2018-05-15T11:55:51.609Z,13.00
2018-05-15T11:58:17.937Z,13.40
2018-05-15T12:00:44.249Z,13.70
2018-05-15T12:03:16.429Z,14.00
2018-05-15T12:08:30.197Z,14.80
2018-05-15T12:10:56.773Z,15.20
2018-05-15T12:13:23.335Z,15.30
2018-05-15T12:15:56.399Z,15.60
2018-05-15T12:18:23.904Z,16.20
2018-05-15T12:20:52.277Z,16.20
2018-05-15T12:23:21.483Z,16.10
2018-05-15T12:28:27.133Z,16.80
2018-05-15T12:30:54.161Z,17.40
2018-05-15T12:33:22.108Z,17.40
2018-05-15T12:35:56.108Z,17.20
2018-05-15T12:38:23.755Z,17.10
2018-05-15T12:40:50.097Z,17.20
2018-05-15T12:43:17.462Z,17.30
2018-05-15T12:45:43.790Z,17.00
2018-05-15T12:48:11.214Z,16.80
2018-05-15T12:50:39.478Z,16.70
2018-05-15T12:53:06.728Z,16.40
2018-05-15T12:55:36.051Z,16.20
2018-05-15T12:58:02.379Z,16.20
2018-05-15T13:00:28.677Z,16.00
2018-05-15T13:02:54.960Z,15.90
2018-05-15T13:05:21.246Z,15.80
2018-05-15T13:07:47.545Z,15.60
2018-05-15T13:10:14.578Z,14.70
2018-05-15T13:12:40.885Z,14.70
2018-05-15T13:15:07.220Z,14.40
2018-05-15T13:17:33.509Z,14.10
2018-05-15T13:20:00.813Z,14.00
2018-05-15T13:22:27.096Z,13.70
2018-05-15T13:24:53.377Z,13.40
2018-05-15T13:27:19.686Z,13.00
2018-05-15T13:29:46.050Z,12.90
2018-05-15T13:32:12.289Z,12.70
2018-05-15T13:34:39.329Z,12.40
2018-05-15T13:37:05.629Z,12.40
2018-05-15T13:39:31.943Z,12.40
2018-05-15T13:41:58.324Z,12.20
2018-05-15T13:44:24.629Z,12.20
2018-05-15T13:46:50.973Z,12.30
2018-05-15T13:49:17.263Z,12.20
2018-05-15T13:51:43.536Z,12.00
2018-05-15T13:54:09.837Z,11.80
2018-05-15T13:56:36.132Z,11.70
2018-05-15T13:59:02.430Z,11.50
2018-05-15T14:01:28.733Z,11.40
2018-05-15T14:03:55.013Z,11.50
2018-05-15T14:06:21.297Z,11.70
2018-05-15T14:08:47.613Z,11.90
2018-05-15T14:11:13.923Z,11.90
2018-05-15T14:13:40.213Z,12.20
2018-05-15T14:16:06.523Z,12.30
2018-05-15T14:18:32.796Z,12.30
2018-05-15T14:20:59.077Z,12.30
2018-05-15T14:23:25.378Z,12.30
2018-05-15T14:25:51.653Z,12.40
2018-05-15T14:28:17.933Z,12.40
2018-05-15T14:30:45.236Z,12.60
2018-05-15T14:33:11.515Z,12.70
2018-05-15T14:35:37.784Z,13.00
2018-05-15T14:38:04.090Z,13.30
2018-05-15T14:40:30.381Z,13.50
2018-05-15T14:43:09.842Z,13.70
2018-05-15T14:45:37.840Z,13.90
2018-05-15T14:48:04.121Z,13.80
2018-05-15T14:50:30.460Z,14.00
2018-05-15T14:52:56.734Z,14.10
2018-05-15T14:55:24.052Z,14.50
2018-05-15T14:57:50.371Z,14.70
2018-05-15T15:00:16.682Z,14.80
2018-05-15T15:02:43.705Z,15.50
2018-05-15T15:05:11.496Z,16.10
2018-05-15T15:07:38.517Z,16.90
2018-05-15T15:10:04.822Z,16.90
2018-05-15T15:12:31.125Z,17.80
2018-05-15T15:14:57.413Z,18.80
2018-05-15T15:17:23.773Z,19.60
2018-05-15T15:19:50.050Z,20.90
2018-05-15T15:22:16.330Z,21.90
2018-05-15T15:24:43.373Z,23.30
2018-05-15T15:27:10.380Z,24.30
2018-05-15T15:29:36.669Z,24.30
2018-05-15T15:32:02.953Z,26.20
2018-05-15T15:34:30.738Z,27.70
2018-05-15T15:36:57.761Z,29.20
2018-05-15T15:39:24.050Z,29.10
2018-05-15T15:41:50.344Z,29.30
2018-05-15T15:44:17.408Z,31.10
2018-05-15T15:46:44.428Z,30.60
2018-05-15T15:49:10.725Z,30.60
2018-05-15T15:51:37.020Z,29.90
2018-05-15T15:54:03.318Z,29.50
2018-05-15T15:56:29.587Z,29.60
2018-05-15T15:58:55.880Z,30.70
2018-05-15T16:01:22.164Z,31.60
2018-05-15T16:03:48.457Z,31.00
2018-05-15T16:06:15.483Z,30.30
2018-05-15T16:08:41.772Z,30.30
2018-05-15T16:11:08.045Z,30.80
2018-05-15T16:13:34.348Z,30.30
2018-05-15T16:16:00.633Z,29.40
2018-05-15T16:18:26.941Z,28.40
2018-05-15T16:20:53.948Z,27.30
2018-05-15T16:23:20.236Z,27.30
2018-05-15T16:25:47.254Z,25.90
2018-05-15T16:28:13.550Z,25.80
2018-05-15T16:30:39.842Z,25.50
2018-05-15T16:33:06.873Z,26.20
2018-05-15T16:35:33.905Z,25.80
2018-05-15T16:38:00.204Z,25.80
2018-05-15T16:40:26.477Z,24.90
2018-05-15T16:42:53.542Z,23.60
2018-05-15T16:45:20.550Z,23.60
2018-05-15T16:47:46.837Z,23.60
2018-05-15T16:50:13.109Z,23.40
2018-05-15T16:52:39.410Z,23.50
2018-05-15T16:55:05.677Z,23.50
2018-05-15T16:57:31.973Z,23.80
2018-05-15T16:59:58.268Z,24.10
2018-05-15T17:02:25.284Z,24.00
2018-05-15T17:04:51.577Z,24.00
2018-05-15T17:07:17.861Z,23.70
2018-05-15T17:09:44.881Z,21.90
2018-05-15T17:12:11.162Z,21.70
2018-05-15T17:14:37.459Z,20.80
2018-05-15T17:17:03.724Z,20.20
2018-05-15T17:19:30.014Z,19.50
2018-05-15T17:21:56.305Z,18.80
2018-05-15T17:24:22.588Z,18.10
2018-05-15T17:26:50.668Z,17.00
2018-05-15T17:29:16.973Z,16.90
2018-05-15T17:31:43.249Z,16.70
2018-05-15T17:34:09.542Z,16.40
2018-05-15T17:36:36.569Z,15.90
2018-05-15T17:39:02.935Z,15.90
2018-05-15T17:41:29.228Z,15.60
2018-05-15T17:43:55.534Z,15.20
2018-05-15T17:46:22.833Z,15.00
2018-05-15T17:48:49.124Z,15.00
2018-05-15T17:51:15.484Z,14.80
2018-05-15T17:53:41.725Z,14.50
2018-05-15T17:56:08.067Z,14.50
2018-05-15T17:58:34.366Z,14.70
2018-05-15T18:01:00.685Z,14.60
2018-05-15T18:03:26.981Z,14.70
2018-05-15T18:05:53.257Z,14.70
2018-05-15T18:08:19.552Z,14.60
2018-05-15T18:10:45.842Z,14.40
2018-05-15T18:13:12.137Z,14.40
2018-05-15T18:15:38.421Z,14.20
2018-05-15T18:18:05.457Z,13.80
2018-05-15T18:20:31.744Z,13.70
2018-05-15T18:22:58.020Z,13.50
2018-05-15T18:25:24.348Z,13.30
2018-05-15T18:27:50.628Z,13.10
2018-05-15T18:30:16.912Z,13.00
2018-05-15T18:32:43.214Z,12.80
2018-05-15T18:35:09.518Z,12.60
2018-05-15T18:37:38.833Z,12.50
2018-05-15T18:40:05.175Z,12.80
2018-05-15T18:42:31.468Z,12.10
2018-05-15T18:44:58.743Z,12.00
2018-05-15T18:47:25.931Z,11.90
2018-05-15T18:49:52.948Z,11.80
2018-05-15T18:52:20.973Z,11.80
2018-05-15T18:54:47.296Z,11.80
2018-05-15T18:57:13.660Z,11.70
2018-05-15T18:59:39.953Z,11.60
2018-05-15T19:02:06.264Z,11.50
2018-05-15T19:04:32.634Z,11.50
2018-05-15T19:06:58.913Z,11.30
2018-05-15T19:09:25.249Z,11.00
2018-05-15T19:11:52.336Z,11.10
2018-05-15T19:14:18.628Z,11.00
2018-05-15T19:16:44.933Z,10.80
2018-05-15T19:19:11.235Z,10.60
2018-05-15T19:21:40.545Z,10.50
2018-05-15T19:24:06.840Z,10.70
2018-05-15T19:26:33.153Z,10.70
2018-05-15T19:28:59.433Z,10.60
2018-05-15T19:31:32.665Z,10.40
2018-05-15T19:33:59.744Z,10.40
2018-05-15T19:36:31.099Z,10.30
2018-05-15T19:39:04.192Z,10.30
2018-05-15T19:41:30.509Z,10.30
2018-05-15T19:43:56.785Z,10.30
2018-05-15T19:46:23.254Z,10.20
2018-05-15T19:48:50.853Z,10.10
2018-05-15T19:51:17.162Z,9.10
2018-05-15T19:53:43.509Z,10.00
2018-05-15T19:56:09.781Z,10.00
2018-05-15T19:58:36.073Z,9.90
2018-05-15T20:01:03.125Z,9.90
2018-05-15T20:03:30.142Z,9.80
2018-05-15T20:05:56.433Z,9.80
2018-05-15T20:08:22.728Z,9.70
2018-05-15T20:10:49.033Z,9.60
2018-05-15T20:13:16.373Z,9.60
2018-05-15T20:15:43.412Z,9.50
2018-05-15T20:18:09.697Z,9.50
2018-05-15T20:20:36.010Z,9.50
2018-05-15T20:23:02.304Z,9.50
2018-05-15T20:25:32.401Z,9.50
2018-05-15T20:27:58.693Z,9.50
2018-05-15T20:30:29.877Z,9.50
2018-05-15T20:32:56.157Z,9.50
2018-05-15T20:35:22.467Z,9.60
2018-05-15T20:37:48.745Z,9.70
2018-05-15T20:40:16.064Z,9.70
2018-05-15T20:42:42.356Z,9.80
2018-05-15T20:45:08.669Z,9.70
2018-05-15T20:47:36.715Z,9.80
2018-05-15T20:50:03.061Z,9.80
2018-05-15T20:52:30.381Z,9.80
2018-05-15T20:54:56.685Z,9.90
2018-05-15T20:57:22.985Z,9.90
2018-05-15T20:59:50.017Z,9.90
2018-05-15T21:02:16.326Z,9.90
2018-05-15T21:04:42.604Z,9.90
2018-05-15T21:07:09.645Z,9.90
2018-05-15T21:09:36.670Z,9.90
2018-05-15T21:12:02.976Z,9.90
2018-05-15T21:14:29.291Z,10.00
2018-05-15T21:16:55.577Z,10.10
2018-05-15T21:19:22.677Z,10.10
2018-05-15T21:21:49.868Z,10.10
2018-05-15T21:24:16.812Z,10.10
2018-05-15T21:26:43.879Z,10.20
2018-05-15T21:29:10.905Z,10.20
2018-05-15T21:31:37.212Z,10.20
2018-05-15T21:34:03.544Z,10.20
2018-05-15T21:36:29.845Z,10.10
2018-05-15T21:38:56.145Z,10.10
2018-05-15T21:41:23.349Z,10.10
2018-05-15T21:43:49.678Z,10.10
2018-05-15T21:46:15.962Z,10.10
2018-05-15T21:48:43.040Z,10.20
2018-05-15T21:51:09.349Z,10.10
2018-05-15T21:53:35.648Z,10.30
2018-05-15T21:56:02.989Z,10.20
2018-05-15T21:58:29.294Z,10.20
2018-05-15T22:00:55.589Z,10.10
2018-05-15T22:03:21.893Z,10.00
2018-05-15T22:05:48.187Z,10.00
2018-05-15T22:08:14.497Z,10.00
2018-05-15T22:10:41.837Z,10.00
2018-05-15T22:13:20.484Z,10.10
2018-05-15T22:15:59.318Z,10.00
2018-05-15T22:18:37.937Z,10.00
2018-05-15T22:21:16.555Z,10.00
2018-05-15T22:23:42.689Z,10.10
2018-05-15T22:26:09.000Z,10.10
2018-05-15T22:28:35.281Z,10.00
2018-05-15T22:31:02.350Z,9.80
2018-05-15T22:33:28.653Z,10.00
2018-05-15T22:35:55.703Z,9.90
2018-05-15T22:38:22.013Z,9.90
2018-05-15T22:40:48.317Z,9.80
2018-05-15T22:43:14.653Z,9.70
2018-05-15T22:45:40.953Z,9.80
2018-05-15T22:48:07.249Z,9.70
2018-05-15T22:50:33.541Z,9.70
2018-05-15T22:52:59.829Z,9.70
2018-05-15T22:55:26.152Z,9.70
2018-05-15T22:57:53.181Z,9.70
2018-05-15T23:00:19.512Z,9.70
2018-05-15T23:02:45.817Z,9.60
2018-05-15T23:05:12.105Z,9.70
2018-05-15T23:07:38.408Z,9.50
2018-05-15T23:10:04.690Z,9.60
2018-05-15T23:12:30.979Z,9.40
2018-05-15T23:14:58.020Z,9.40
2018-05-15T23:17:25.121Z,9.40
2018-05-15T23:19:52.094Z,9.40
2018-05-15T23:22:30.728Z,9.30
2018-05-15T23:24:58.035Z,9.40
2018-05-15T23:27:24.319Z,9.40
2018-05-15T23:29:51.387Z,9.50
2018-05-15T23:32:17.681Z,9.50
2018-05-15T23:34:43.962Z,9.50
2018-05-15T23:37:10.260Z,9.60
2018-05-15T23:39:37.293Z,9.40
2018-05-15T23:42:03.605Z,9.40
2018-05-15T23:44:29.911Z,9.40
2018-05-15T23:46:56.205Z,9.20
2018-05-15T23:49:23.239Z,9.00
2018-05-15T23:51:50.293Z,9.00
2018-05-15T23:54:17.321Z,9.00
2018-05-15T23:56:43.597Z,9.00
2018-05-15T23:59:09.901Z,9.00
